createdAt,value
2023-02-11T02:13:32.439Z,27.40
2023-02-11T02:17:18.432Z,27.30
2023-02-11T02:21:14.452Z,33.40
2023-02-11T02:25:02.469Z,35.40
2023-02-11T02:28:59.473Z,29.30
2023-02-11T02:48:41.656Z,28.50
2023-02-11T02:52:41.719Z,26.60
2023-02-11T02:56:28.688Z,25.90
2023-02-11T03:00:18.698Z,27.30
2023-02-11T03:04:23.658Z,25.10
2023-02-11T03:08:12.708Z,29.10
2023-02-11T03:12:01.710Z,25.00
2023-02-11T03:15:50.163Z,26.50
2023-02-11T03:19:40.704Z,32.90
2023-02-11T03:27:15.685Z,25.00
2023-02-11T03:34:40.740Z,25.90
2023-02-11T03:38:20.705Z,26.30
2023-02-11T03:42:24.388Z,25.90
2023-02-11T03:46:28.378Z,26.20
2023-02-11T03:50:03.775Z,23.30
2023-02-11T03:54:10.674Z,32.20
2023-02-11T03:58:27.298Z,26.20
2023-02-11T04:02:31.404Z,25.90
2023-02-11T04:06:35.631Z,22.80
2023-02-11T04:14:25.515Z,24.60
2023-02-11T04:18:16.763Z,25.40
2023-02-11T04:22:05.775Z,24.90
2023-02-11T04:26:08.594Z,25.50
2023-02-11T04:29:59.702Z,25.70
2023-02-11T04:33:51.814Z,24.90
2023-02-11T04:41:22.235Z,29.50
2023-02-11T04:44:55.419Z,27.30
2023-02-11T04:48:30.893Z,21.60
2023-02-11T04:52:07.809Z,27.00
2023-02-11T04:56:02.782Z,24.20
2023-02-11T04:59:56.703Z,24.70
2023-02-11T05:03:59.548Z,22.70
2023-02-11T05:07:47.467Z,24.20
2023-02-11T05:11:37.772Z,23.00
2023-02-11T05:15:26.009Z,25.60
2023-02-11T05:19:01.832Z,28.10
2023-02-11T05:22:51.807Z,22.30
2023-02-11T05:26:55.687Z,22.30
2023-02-11T05:30:57.455Z,24.40
2023-02-11T05:50:01.799Z,25.80
2023-02-11T05:54:04.697Z,29.50
2023-02-11T06:05:53.862Z,27.10
2023-02-11T06:09:57.462Z,25.50
2023-02-11T06:17:51.553Z,29.90
2023-02-11T06:21:44.206Z,27.70
2023-02-11T06:29:28.835Z,32.00
2023-02-11T06:33:16.904Z,33.80
2023-02-11T06:37:07.845Z,33.70
2023-02-11T06:40:56.825Z,35.10
2023-02-11T06:49:01.552Z,34.10
2023-02-11T06:53:08.013Z,32.70
2023-02-11T06:57:15.429Z,32.80
2023-02-11T07:18:35.791Z,33.20
2023-02-11T07:22:42.654Z,34.00
2023-02-11T07:27:21.219Z,28.00
2023-02-11T07:31:57.231Z,31.50
2023-02-11T07:36:48.888Z,45.60
2023-02-11T07:41:02.747Z,31.40
2023-02-11T07:45:37.156Z,29.60
2023-02-11T07:50:17.672Z,31.00
2023-02-11T07:55:05.115Z,27.80
2023-02-11T10:38:29.967Z,39.80
2023-02-11T10:52:13.922Z,46.50
2023-02-11T11:23:18.599Z,34.70
2023-02-11T11:41:22.214Z,39.60
2023-02-11T12:44:31.973Z,46.40
2023-02-11T12:53:53.876Z,41.70
2023-02-11T14:21:58.530Z,54.60
2023-02-11T15:19:24.353Z,60.70
2023-02-11T16:16:27.142Z,66.20
2023-02-11T16:25:29.952Z,73.30
2023-02-11T16:38:06.232Z,68.00
2023-02-11T17:09:40.463Z,62.20
2023-02-11T17:13:33.500Z,54.90
2023-02-11T17:17:36.723Z,71.70
2023-02-11T17:21:30.214Z,74.00
2023-02-11T17:25:27.102Z,72.40
2023-02-11T17:29:24.681Z,64.90
2023-02-11T17:33:26.501Z,63.70
2023-02-11T17:37:28.039Z,62.30
2023-02-11T17:41:17.909Z,72.20
2023-02-11T19:00:25.686Z,44.30
2023-02-11T19:22:38.851Z,55.90
2023-02-11T19:30:35.758Z,48.90
